sensor_id;sensor_type;location;lat;lon;timestamp;pressure;altitude;pressure_sealevel;temperature;humidity
23241;BME280;11789;53.482;9.862;2024-03-25T00:01:09;100104.50;;;4.86;100.00
23241;BME280;11789;53.482;9.862;2024-03-25T00:03:35;100111.34;;;4.84;100.00
23241;BME280;11789;53.482;9.862;2024-03-25T00:06:00;100108.75;;;4.82;100.00
23241;BME280;11789;53.482;9.862;2024-03-25T00:08:26;100112.19;;;4.83;100.00
23241;BME280;11789;53.482;9.862;2024-03-25T00:10:51;100119.00;;;4.82;100.00
23241;BME280;11789;53.482;9.862;2024-03-25T00:13:17;100119.81;;;4.81;100.00
23241;BME280;11789;53.482;9.862;2024-03-25T00:15:42;100115.53;;;4.79;100.00
23241;BME280;11789;53.482;9.862;2024-03-25T00:18:09;100112.13;;;4.77;100.00
23241;BME280;11789;53.482;9.862;2024-03-25T00:20:36;100124.03;;;4.76;100.00
23241;BME280;11789;53.482;9.862;2024-03-25T00:23:02;100129.16;;;4.75;100.00
23241;BME280;11789;53.482;9.862;2024-03-25T00:25:27;100127.44;;;4.74;100.00
23241;BME280;11789;53.482;9.862;2024-03-25T00:27:53;100135.13;;;4.74;100.00
23241;BME280;11789;53.482;9.862;2024-03-25T00:30:19;100133.41;;;4.73;100.00
23241;BME280;11789;53.482;9.862;2024-03-25T00:32:44;100131.72;;;4.73;100.00
23241;BME280;11789;53.482;9.862;2024-03-25T00:35:10;100136.81;;;4.73;100.00
23241;BME280;11789;53.482;9.862;2024-03-25T00:37:35;100136.81;;;4.72;100.00
23241;BME280;11789;53.482;9.862;2024-03-25T00:40:01;100149.63;;;4.72;100.00
23241;BME280;11789;53.482;9.862;2024-03-25T00:42:27;100141.06;;;4.71;100.00
23241;BME280;11789;53.482;9.862;2024-03-25T00:44:52;100147.91;;;4.72;100.00
23241;BME280;11789;53.482;9.862;2024-03-25T00:47:17;100147.06;;;4.72;100.00
23241;BME280;11789;53.482;9.862;2024-03-25T00:49:43;100153.84;;;4.71;100.00
23241;BME280;11789;53.482;9.862;2024-03-25T00:52:08;100153.00;;;4.71;100.00
23241;BME280;11789;53.482;9.862;2024-03-25T00:54:34;100159.00;;;4.73;100.00
23241;BME280;11789;53.482;9.862;2024-03-25T00:56:59;100158.97;;;4.71;100.00
23241;BME280;11789;53.482;9.862;2024-03-25T00:59:24;100160.66;;;4.69;100.00
23241;BME280;11789;53.482;9.862;2024-03-25T01:01:50;100164.94;;;4.70;100.00
23241;BME280;11789;53.482;9.862;2024-03-25T01:04:16;100169.22;;;4.69;100.00
23241;BME280;11789;53.482;9.862;2024-03-25T01:06:41;100177.72;;;4.67;100.00
23241;BME280;11789;53.482;9.862;2024-03-25T01:09:07;100173.44;;;4.66;100.00
23241;BME280;11789;53.482;9.862;2024-03-25T01:11:33;100173.41;;;4.64;100.00
23241;BME280;11789;53.482;9.862;2024-03-25T01:13:59;100164.88;;;4.65;100.00
23241;BME280;11789;53.482;9.862;2024-03-25T01:16:24;100177.72;;;4.67;100.00
23241;BME280;11789;53.482;9.862;2024-03-25T01:18:50;100166.63;;;4.68;100.00
23241;BME280;11789;53.482;9.862;2024-03-25T01:21:15;100174.28;;;4.65;100.00
23241;BME280;11789;53.482;9.862;2024-03-25T01:23:40;100178.59;;;4.67;100.00
23241;BME280;11789;53.482;9.862;2024-03-25T01:26:06;100184.56;;;4.68;100.00
23241;BME280;11789;53.482;9.862;2024-03-25T01:28:32;100184.56;;;4.68;100.00
23241;BME280;11789;53.482;9.862;2024-03-25T01:30:57;100186.28;;;4.69;100.00
23241;BME280;11789;53.482;9.862;2024-03-25T01:33:23;100189.69;;;4.68;100.00
23241;BME280;11789;53.482;9.862;2024-03-25T01:35:48;100192.25;;;4.68;100.00
23241;BME280;11789;53.482;9.862;2024-03-25T01:38:14;100193.94;;;4.67;100.00
23241;BME280;11789;53.482;9.862;2024-03-25T01:40:39;100191.41;;;4.69;100.00
23241;BME280;11789;53.482;9.862;2024-03-25T01:43:05;100199.09;;;4.71;100.00
23241;BME280;11789;53.482;9.862;2024-03-25T01:45:33;100190.59;;;4.72;100.00
23241;BME280;11789;53.482;9.862;2024-03-25T01:48:02;100187.13;;;4.69;100.00
23241;BME280;11789;53.482;9.862;2024-03-25T01:50:28;100196.50;;;4.69;100.00
23241;BME280;11789;53.482;9.862;2024-03-25T01:52:56;100195.66;;;4.70;100.00
23241;BME280;11789;53.482;9.862;2024-03-25T01:55:25;100206.75;;;4.71;100.00
23241;BME280;11789;53.482;9.862;2024-03-25T01:57:51;100207.63;;;4.71;100.00
23241;BME280;11789;53.482;9.862;2024-03-25T02:00:18;100207.66;;;4.73;100.00
23241;BME280;11789;53.482;9.862;2024-03-25T02:02:44;100207.66;;;4.74;100.00
23241;BME280;11789;53.482;9.862;2024-03-25T02:05:11;100215.34;;;4.74;100.00
23241;BME280;11789;53.482;9.862;2024-03-25T02:07:37;100212.78;;;4.74;100.00
23241;BME280;11789;53.482;9.862;2024-03-25T02:10:04;100223.87;;;4.73;100.00
23241;BME280;11789;53.482;9.862;2024-03-25T02:12:33;100220.47;;;4.74;100.00
23241;BME280;11789;53.482;9.862;2024-03-25T02:14:59;100218.75;;;4.72;100.00
23241;BME280;11789;53.482;9.862;2024-03-25T02:17:25;100221.31;;;4.72;100.00
23241;BME280;11789;53.482;9.862;2024-03-25T02:19:51;100242.66;;;4.72;100.00
23241;BME280;11789;53.482;9.862;2024-03-25T02:22:16;100232.41;;;4.72;100.00
23241;BME280;11789;53.482;9.862;2024-03-25T02:24:45;100233.28;;;4.73;100.00
23241;BME280;11789;53.482;9.862;2024-03-25T02:27:11;100239.25;;;4.72;100.00
23241;BME280;11789;53.482;9.862;2024-03-25T02:29:40;100232.38;;;4.69;100.00
23241;BME280;11789;53.482;9.862;2024-03-25T02:32:06;100240.03;;;4.69;100.00
23241;BME280;11789;53.482;9.862;2024-03-25T02:34:32;100240.03;;;4.67;100.00
23241;BME280;11789;53.482;9.862;2024-03-25T02:36:58;100240.87;;;4.68;100.00
23241;BME280;11789;53.482;9.862;2024-03-25T02:39:24;100244.28;;;4.67;100.00
23241;BME280;11789;53.482;9.862;2024-03-25T02:41:49;100243.44;;;4.66;100.00
23241;BME280;11789;53.482;9.862;2024-03-25T02:44:16;100240.03;;;4.67;100.00
23241;BME280;11789;53.482;9.862;2024-03-25T02:46:42;100246.00;;;4.68;100.00
23241;BME280;11789;53.482;9.862;2024-03-25T02:49:08;100246.81;;;4.65;100.00
23241;BME280;11789;53.482;9.862;2024-03-25T02:51:33;100245.97;;;4.65;100.00
23241;BME280;11789;53.482;9.862;2024-03-25T02:53:59;100254.47;;;4.64;100.00
23241;BME280;11789;53.482;9.862;2024-03-25T02:56:24;100258.72;;;4.62;100.00
23241;BME280;11789;53.482;9.862;2024-03-25T02:58:50;100261.28;;;4.62;100.00
23241;BME280;11789;53.482;9.862;2024-03-25T03:01:16;100260.44;;;4.61;100.00
23241;BME280;11789;53.482;9.862;2024-03-25T03:03:42;100265.50;;;4.60;100.00
23241;BME280;11789;53.482;9.862;2024-03-25T03:06:07;100269.75;;;4.56;100.00
23241;BME280;11789;53.482;9.862;2024-03-25T03:08:33;100270.63;;;4.57;100.00
23241;BME280;11789;53.482;9.862;2024-03-25T03:10:58;100285.97;;;4.57;100.00
23241;BME280;11789;53.482;9.862;2024-03-25T03:13:23;100291.03;;;4.55;100.00
23241;BME280;11789;53.482;9.862;2024-03-25T03:15:49;100289.31;;;4.51;100.00
23241;BME280;11789;53.482;9.862;2024-03-25T03:18:14;100302.06;;;4.50;100.00
23241;BME280;11789;53.482;9.862;2024-03-25T03:20:40;100307.16;;;4.47;100.00
23241;BME280;11789;53.482;9.862;2024-03-25T03:23:05;100307.16;;;4.47;100.00
23241;BME280;11789;53.482;9.862;2024-03-25T03:25:30;100306.28;;;4.46;100.00
23241;BME280;11789;53.482;9.862;2024-03-25T03:27:56;100311.44;;;4.48;100.00
23241;BME280;11789;53.482;9.862;2024-03-25T03:30:22;100311.44;;;4.48;100.00
23241;BME280;11789;53.482;9.862;2024-03-25T03:32:47;100320.81;;;4.47;100.00
23241;BME280;11789;53.482;9.862;2024-03-25T03:35:12;100325.88;;;4.46;100.00
23241;BME280;11789;53.482;9.862;2024-03-25T03:37:38;100322.44;;;4.43;100.00
23241;BME280;11789;53.482;9.862;2024-03-25T03:40:04;100325.84;;;4.42;100.00
23241;BME280;11789;53.482;9.862;2024-03-25T03:42:32;100326.72;;;4.43;100.00
23241;BME280;11789;53.482;9.862;2024-03-25T03:44:58;100328.44;;;4.44;100.00
23241;BME280;11789;53.482;9.862;2024-03-25T03:47:23;100341.25;;;4.46;100.00
23241;BME280;11789;53.482;9.862;2024-03-25T03:49:49;100331.00;;;4.46;100.00
23241;BME280;11789;53.482;9.862;2024-03-25T03:52:14;100337.88;;;4.47;100.00
23241;BME280;11789;53.482;9.862;2024-03-25T03:54:39;100335.31;;;4.47;100.00
23241;BME280;11789;53.482;9.862;2024-03-25T03:57:05;100344.69;;;4.48;100.00
23241;BME280;11789;53.482;9.862;2024-03-25T03:59:31;100345.56;;;4.48;100.00
23241;BME280;11789;53.482;9.862;2024-03-25T04:01:56;100354.94;;;4.49;100.00
23241;BME280;11789;53.482;9.862;2024-03-25T04:04:22;100356.66;;;4.49;100.00
23241;BME280;11789;53.482;9.862;2024-03-25T04:06:48;100354.09;;;4.49;100.00
23241;BME280;11789;53.482;9.862;2024-03-25T04:09:13;100358.34;;;4.48;100.00
23241;BME280;11789;53.482;9.862;2024-03-25T04:11:39;100366.88;;;4.47;100.00
23241;BME280;11789;53.482;9.862;2024-03-25T04:14:04;100366.03;;;4.47;100.00
23241;BME280;11789;53.482;9.862;2024-03-25T04:16:31;100371.12;;;4.47;100.00
23241;BME280;11789;53.482;9.862;2024-03-25T04:18:57;100367.72;;;4.46;100.00
23241;BME280;11789;53.482;9.862;2024-03-25T04:21:23;100370.28;;;4.48;100.00
23241;BME280;11789;53.482;9.862;2024-03-25T04:23:49;100366.84;;;4.46;100.00
23241;BME280;11789;53.482;9.862;2024-03-25T04:26:15;100375.34;;;4.45;100.00
23241;BME280;11789;53.482;9.862;2024-03-25T04:28:40;100378.75;;;4.43;100.00
23241;BME280;11789;53.482;9.862;2024-03-25T04:31:07;100381.25;;;4.40;100.00
23241;BME280;11789;53.482;9.862;2024-03-25T04:33:33;100378.66;;;4.37;100.00
23241;BME280;11789;53.482;9.862;2024-03-25T04:35:59;100388.03;;;4.37;100.00
23241;BME280;11789;53.482;9.862;2024-03-25T04:38:24;100396.56;;;4.36;100.00
23241;BME280;11789;53.482;9.862;2024-03-25T04:40:50;100393.03;;;4.31;100.00
23241;BME280;11789;53.482;9.862;2024-03-25T04:43:15;100396.44;;;4.30;100.00
23241;BME280;11789;53.482;9.862;2024-03-25T04:45:41;100404.09;;;4.28;100.00
23241;BME280;11789;53.482;9.862;2024-03-25T04:48:07;100404.84;;;4.23;100.00
23241;BME280;11789;53.482;9.862;2024-03-25T04:50:35;100410.75;;;4.20;100.00
23241;BME280;11789;53.482;9.862;2024-03-25T04:53:00;100412.44;;;4.18;100.00
23241;BME280;11789;53.482;9.862;2024-03-25T04:55:26;100407.25;;;4.13;100.00
23241;BME280;11789;53.482;9.862;2024-03-25T04:57:51;100411.47;;;4.11;100.00
23241;BME280;11789;53.482;9.862;2024-03-25T05:00:18;100413.19;;;4.12;100.00
23241;BME280;11789;53.482;9.862;2024-03-25T05:02:43;100425.12;;;4.12;100.00
23241;BME280;11789;53.482;9.862;2024-03-25T05:05:09;100431.97;;;4.13;100.00
23241;BME280;11789;53.482;9.862;2024-03-25T05:07:35;100431.09;;;4.11;100.00
23241;BME280;11789;53.482;9.862;2024-03-25T05:10:01;100431.00;;;4.08;100.00
23241;BME280;11789;53.482;9.862;2024-03-25T05:12:26;100436.19;;;4.11;100.00
23241;BME280;11789;53.482;9.862;2024-03-25T05:14:56;100431.09;;;4.11;100.00
23241;BME280;11789;53.482;9.862;2024-03-25T05:17:21;100431.03;;;4.09;100.00
23241;BME280;11789;53.482;9.862;2024-03-25T05:19:46;100437.91;;;4.12;100.00
23241;BME280;11789;53.482;9.862;2024-03-25T05:22:12;100434.44;;;4.10;100.00
23241;BME280;11789;53.482;9.862;2024-03-25T05:24:38;100426.75;;;4.08;100.00
23241;BME280;11789;53.482;9.862;2024-03-25T05:27:03;100431.09;;;4.11;100.00
23241;BME280;11789;53.482;9.862;2024-03-25T05:29:29;100429.34;;;4.10;100.00
23241;BME280;11789;53.482;9.862;2024-03-25T05:32:01;100441.25;;;4.08;100.00
23241;BME280;11789;53.482;9.862;2024-03-25T05:34:28;100448.03;;;4.06;100.00
23241;BME280;11789;53.482;9.862;2024-03-25T05:36:54;100448.06;;;4.07;100.00
23241;BME280;11789;53.482;9.862;2024-03-25T05:39:19;100449.81;;;4.10;100.00
23241;BME280;11789;53.482;9.862;2024-03-25T05:41:46;100447.31;;;4.13;100.00
23241;BME280;11789;53.482;9.862;2024-03-25T05:44:12;100442.19;;;4.13;100.00
23241;BME280;11789;53.482;9.862;2024-03-25T05:46:39;100442.31;;;4.19;100.00
23241;BME280;11789;53.482;9.862;2024-03-25T05:49:05;100447.50;;;4.22;100.00
23241;BME280;11789;53.482;9.862;2024-03-25T05:51:32;100455.94;;;4.20;100.00
23241;BME280;11789;53.482;9.862;2024-03-25T05:53:59;100461.13;;;4.23;100.00
23241;BME280;11789;53.482;9.862;2024-03-25T05:56:24;100460.50;;;4.34;100.00
23241;BME280;11789;53.482;9.862;2024-03-25T05:58:59;100460.72;;;4.47;100.00
23241;BME280;11789;53.482;9.862;2024-03-25T06:01:25;100460.91;;;4.59;100.00
23241;BME280;11789;53.482;9.862;2024-03-25T06:03:51;100461.69;;;4.53;100.00
23241;BME280;11789;53.482;9.862;2024-03-25T06:06:16;100458.25;;;4.51;100.00
23241;BME280;11789;53.482;9.862;2024-03-25T06:08:43;100463.31;;;4.50;100.00
23241;BME280;11789;53.482;9.862;2024-03-25T06:11:08;100472.75;;;4.52;100.00
23241;BME280;11789;53.482;9.862;2024-03-25T06:13:34;100485.59;;;4.55;100.00
23241;BME280;11789;53.482;9.862;2024-03-25T06:16:02;100477.84;;;4.51;100.00
23241;BME280;11789;53.482;9.862;2024-03-25T06:18:27;100471.00;;;4.50;100.00
23241;BME280;11789;53.482;9.862;2024-03-25T06:20:53;100482.09;;;4.50;100.00
23241;BME280;11789;53.482;9.862;2024-03-25T06:23:25;100486.31;;;4.47;100.00
23241;BME280;11789;53.482;9.862;2024-03-25T06:25:52;100491.37;;;4.45;100.00
23241;BME280;11789;53.482;9.862;2024-03-25T06:28:18;100490.59;;;4.46;100.00
23241;BME280;11789;53.482;9.862;2024-03-25T06:30:48;100490.50;;;4.43;100.00
23241;BME280;11789;53.482;9.862;2024-03-25T06:33:33;100500.78;;;4.45;100.00
23241;BME280;11789;53.482;9.862;2024-03-25T06:36:17;100508.44;;;4.45;100.00
23241;BME280;11789;53.482;9.862;2024-03-25T06:38:44;100506.72;;;4.42;100.00
23241;BME280;11789;53.482;9.862;2024-03-25T06:41:09;100512.66;;;4.41;100.00
23241;BME280;11789;53.482;9.862;2024-03-25T06:43:36;100517.78;;;4.41;100.00
23241;BME280;11789;53.482;9.862;2024-03-25T06:46:03;100521.16;;;4.40;100.00
23241;BME280;11789;53.482;9.862;2024-03-25T06:48:29;100521.16;;;4.40;100.00
23241;BME280;11789;53.482;9.862;2024-03-25T06:50:56;100524.56;;;4.40;100.00
23241;BME280;11789;53.482;9.862;2024-03-25T06:53:22;100527.09;;;4.37;100.00
23241;BME280;11789;53.482;9.862;2024-03-25T06:55:55;100524.53;;;4.36;100.00
23241;BME280;11789;53.482;9.862;2024-03-25T06:58:22;100523.72;;;4.40;100.00
23241;BME280;11789;53.482;9.862;2024-03-25T07:00:49;100528.91;;;4.43;100.00
23241;BME280;11789;53.482;9.862;2024-03-25T07:03:18;100530.66;;;4.46;100.00
23241;BME280;11789;53.482;9.862;2024-03-25T07:05:45;100524.72;;;4.48;100.00
23241;BME280;11789;53.482;9.862;2024-03-25T07:08:12;100535.91;;;4.52;100.00
23241;BME280;11789;53.482;9.862;2024-03-25T07:10:38;100535.03;;;4.51;100.00
23241;BME280;11789;53.482;9.862;2024-03-25T07:13:04;100536.72;;;4.51;100.00
23241;BME280;11789;53.482;9.862;2024-03-25T07:15:31;100542.75;;;4.53;100.00
23241;BME280;11789;53.482;9.862;2024-03-25T07:17:57;100542.81;;;4.57;100.00
23241;BME280;11789;53.482;9.862;2024-03-25T07:20:23;100544.63;;;4.63;100.00
23241;BME280;11789;53.482;9.862;2024-03-25T07:22:48;100543.00;;;4.68;100.00
23241;BME280;11789;53.482;9.862;2024-03-25T07:25:14;100540.56;;;4.74;100.00
23241;BME280;11789;53.482;9.862;2024-03-25T07:27:40;100545.97;;;4.91;100.00
23241;BME280;11789;53.482;9.862;2024-03-25T07:30:06;100541.16;;;5.11;100.00
23241;BME280;11789;53.482;9.862;2024-03-25T07:32:35;100542.97;;;5.16;100.00
23241;BME280;11789;53.482;9.862;2024-03-25T07:35:01;100549.03;;;5.21;100.00
23241;BME280;11789;53.482;9.862;2024-03-25T07:37:26;100553.47;;;5.32;100.00
23241;BME280;11789;53.482;9.862;2024-03-25T07:39:52;100556.91;;;5.32;100.00
23241;BME280;11789;53.482;9.862;2024-03-25T07:42:18;100551.75;;;5.31;100.00
23241;BME280;11789;53.482;9.862;2024-03-25T07:44:43;100555.91;;;5.23;100.00
23241;BME280;11789;53.482;9.862;2024-03-25T07:47:09;100562.66;;;5.19;100.00
23241;BME280;11789;53.482;9.862;2024-03-25T07:49:34;100562.59;;;5.16;100.00
23241;BME280;11789;53.482;9.862;2024-03-25T07:52:00;100561.72;;;5.12;100.00
23241;BME280;11789;53.482;9.862;2024-03-25T07:54:26;100565.13;;;5.13;100.00
23241;BME280;11789;53.482;9.862;2024-03-25T07:56:52;100557.44;;;5.13;100.00
23241;BME280;11789;53.482;9.862;2024-03-25T07:59:18;100562.59;;;5.16;100.00
23241;BME280;11789;53.482;9.862;2024-03-25T08:01:44;100566.09;;;5.21;100.00
23241;BME280;11789;53.482;9.862;2024-03-25T08:04:10;100565.34;;;5.27;100.00
23241;BME280;11789;53.482;9.862;2024-03-25T08:06:36;100572.22;;;5.29;100.00
23241;BME280;11789;53.482;9.862;2024-03-25T08:09:01;100571.38;;;5.30;100.00
23241;BME280;11789;53.482;9.862;2024-03-25T08:11:30;100573.94;;;5.29;100.00
23241;BME280;11789;53.482;9.862;2024-03-25T08:13:56;100578.22;;;5.31;100.00
23241;BME280;11789;53.482;9.862;2024-03-25T08:16:21;100577.41;;;5.32;100.00
23241;BME280;11789;53.482;9.862;2024-03-25T08:18:47;100581.88;;;5.45;100.00
23241;BME280;11789;53.482;9.862;2024-03-25T08:21:12;100583.03;;;5.64;100.00
23241;BME280;11789;53.482;9.862;2024-03-25T08:23:38;100583.63;;;6.06;100.00
23241;BME280;11789;53.482;9.862;2024-03-25T08:26:03;100585.41;;;6.13;100.00
23241;BME280;11789;53.482;9.862;2024-03-25T08:28:29;100583.44;;;6.60;100.00
23241;BME280;11789;53.482;9.862;2024-03-25T08:30:54;100587.31;;;7.08;100.00
23241;BME280;11789;53.482;9.862;2024-03-25T08:33:20;100582.66;;;7.66;100.00
23241;BME280;11789;53.482;9.862;2024-03-25T08:35:46;100574.31;;;8.15;100.00
23241;BME280;11789;53.482;9.862;2024-03-25T08:38:11;100578.66;;;8.25;100.00
23241;BME280;11789;53.482;9.862;2024-03-25T08:40:36;100586.19;;;7.88;100.00
23241;BME280;11789;53.482;9.862;2024-03-25T08:43:02;100588.47;;;7.42;100.00
23241;BME280;11789;53.482;9.862;2024-03-25T08:45:28;100590.66;;;6.98;100.00
23241;BME280;11789;53.482;9.862;2024-03-25T08:47:53;100595.69;;;6.87;100.00
23241;BME280;11789;53.482;9.862;2024-03-25T08:50:18;100600.84;;;6.89;100.00
23241;BME280;11789;53.482;9.862;2024-03-25T08:52:44;100585.72;;;7.21;100.00
23241;BME280;11789;53.482;9.862;2024-03-25T08:55:09;100588.44;;;7.36;100.00
23241;BME280;11789;53.482;9.862;2024-03-25T08:57:35;100590.97;;;7.33;100.00
23241;BME280;11789;53.482;9.862;2024-03-25T09:00:00;100596.94;;;7.29;100.00
23241;BME280;11789;53.482;9.862;2024-03-25T09:02:26;100595.16;;;7.23;100.00
23241;BME280;11789;53.482;9.862;2024-03-25T09:04:51;100595.94;;;7.10;100.00
23241;BME280;11789;53.482;9.862;2024-03-25T09:07:18;100603.50;;;6.98;100.00
23241;BME280;11789;53.482;9.862;2024-03-25T09:09:43;100611.16;;;6.90;100.00
23241;BME280;11789;53.482;9.862;2024-03-25T09:12:27;100604.19;;;6.80;100.00
23241;BME280;11789;53.482;9.862;2024-03-25T09:14:53;100609.28;;;6.79;100.00
23241;BME280;11789;53.482;9.862;2024-03-25T09:17:18;100610.94;;;6.72;100.00
23241;BME280;11789;53.482;9.862;2024-03-25T09:19:44;100617.75;;;6.65;100.00
23241;BME280;11789;53.482;9.862;2024-03-25T09:22:09;100612.50;;;6.58;100.00
23241;BME280;11789;53.482;9.862;2024-03-25T09:24:35;100616.78;;;6.56;100.00
23241;BME280;11789;53.482;9.862;2024-03-25T09:27:00;100616.72;;;6.51;100.00
23241;BME280;11789;53.482;9.862;2024-03-25T09:29:26;100614.09;;;6.46;100.00
23241;BME280;11789;53.482;9.862;2024-03-25T09:31:51;100621.03;;;6.55;100.00
23241;BME280;11789;53.482;9.862;2024-03-25T09:34:17;100616.13;;;6.75;100.00
23241;BME280;11789;53.482;9.862;2024-03-25T09:36:42;100612.06;;;6.97;100.00
23241;BME280;11789;53.482;9.862;2024-03-25T09:39:07;100609.59;;;7.06;100.00
23241;BME280;11789;53.482;9.862;2024-03-25T09:41:35;100612.16;;;7.09;100.00
23241;BME280;11789;53.482;9.862;2024-03-25T09:44:03;100614.78;;;7.11;100.00
23241;BME280;11789;53.482;9.862;2024-03-25T09:46:31;100613.94;;;7.13;100.00
23241;BME280;11789;53.482;9.862;2024-03-25T09:48:56;100617.31;;;7.06;100.00
23241;BME280;11789;53.482;9.862;2024-03-25T09:51:22;100623.16;;;6.90;100.00
23241;BME280;11789;53.482;9.862;2024-03-25T09:53:47;100628.13;;;6.76;100.00
23241;BME280;11789;53.482;9.862;2024-03-25T09:56:13;100627.13;;;6.63;100.00
23241;BME280;11789;53.482;9.862;2024-03-25T09:58:39;100622.03;;;6.65;100.00
23241;BME280;11789;53.482;9.862;2024-03-25T10:01:05;100628.94;;;6.70;100.00
23241;BME280;11789;53.482;9.862;2024-03-25T10:03:31;100633.31;;;6.81;100.00
23241;BME280;11789;53.482;9.862;2024-03-25T10:05:56;100629.91;;;6.83;100.00
23241;BME280;11789;53.482;9.862;2024-03-25T10:08:22;100623.91;;;6.84;100.00
23241;BME280;11789;53.482;9.862;2024-03-25T10:10:48;100628.53;;;7.19;100.00
23241;BME280;11789;53.482;9.862;2024-03-25T10:13:16;100613.44;;;7.56;100.00
23241;BME280;11789;53.482;9.862;2024-03-25T10:15:41;100605.91;;;7.85;100.00
23241;BME280;11789;53.482;9.862;2024-03-25T10:18:07;100609.47;;;8.08;97.55
23241;BME280;11789;53.482;9.862;2024-03-25T10:20:33;100610.34;;;8.09;95.20
23241;BME280;11789;53.482;9.862;2024-03-25T10:23:00;100612.84;;;7.99;95.44
23241;BME280;11789;53.482;9.862;2024-03-25T10:25:30;100623.91;;;7.83;93.89
23241;BME280;11789;53.482;9.862;2024-03-25T10:27:57;100622.81;;;7.47;93.29
23241;BME280;11789;53.482;9.862;2024-03-25T10:30:24;100633.78;;;7.25;96.23
23241;BME280;11789;53.482;9.862;2024-03-25T10:35:26;100637.63;;;6.83;99.72
23241;BME280;11789;53.482;9.862;2024-03-25T10:37:55;100645.31;;;6.83;100.00
23241;BME280;11789;53.482;9.862;2024-03-25T10:40:24;100643.72;;;6.91;100.00
23241;BME280;11789;53.482;9.862;2024-03-25T10:43:00;100642.97;;;7.01;100.00
23241;BME280;11789;53.482;9.862;2024-03-25T10:45:28;100643.00;;;7.08;100.00
23241;BME280;11789;53.482;9.862;2024-03-25T10:47:57;100647.44;;;7.24;97.98
23241;BME280;11789;53.482;9.862;2024-03-25T10:50:27;100644.97;;;7.32;97.96
23241;BME280;11789;53.482;9.862;2024-03-25T10:52:53;100638.19;;;7.44;97.56
23241;BME280;11789;53.482;9.862;2024-03-25T10:55:20;100634.88;;;7.56;96.66
23241;BME280;11789;53.482;9.862;2024-03-25T10:57:48;100633.25;;;7.66;96.21
23241;BME280;11789;53.482;9.862;2024-03-25T11:00:15;100633.09;;;7.49;95.15
23241;BME280;11789;53.482;9.862;2024-03-25T11:02:44;100639.88;;;7.39;95.33
23241;BME280;11789;53.482;9.862;2024-03-25T11:05:11;100631.38;;;7.48;97.35
23241;BME280;11789;53.482;9.862;2024-03-25T11:07:37;100629.03;;;7.77;94.78
23241;BME280;11789;53.482;9.862;2024-03-25T11:10:07;100630.91;;;8.02;92.26
23241;BME280;11789;53.482;9.862;2024-03-25T11:12:37;100634.34;;;8.01;87.47
23241;BME280;11789;53.482;9.862;2024-03-25T11:15:05;100635.12;;;7.91;87.23
23241;BME280;11789;53.482;9.862;2024-03-25T11:17:32;100631.66;;;7.88;89.13
23241;BME280;11789;53.482;9.862;2024-03-25T11:20:15;100631.66;;;7.86;89.40
23241;BME280;11789;53.482;9.862;2024-03-25T11:22:52;100623.19;;;8.04;89.50
23241;BME280;11789;53.482;9.862;2024-03-25T11:25:20;100624.09;;;8.15;87.73
23241;BME280;11789;53.482;9.862;2024-03-25T11:27:47;100625.78;;;8.09;82.69
23241;BME280;11789;53.482;9.862;2024-03-25T11:30:14;100620.59;;;8.02;81.47
23241;BME280;11789;53.482;9.862;2024-03-25T11:32:44;100618.06;;;8.09;81.97
23241;BME280;11789;53.482;9.862;2024-03-25T11:35:10;100612.09;;;8.14;81.38
23241;BME280;11789;53.482;9.862;2024-03-25T11:37:42;100614.72;;;8.23;81.39
23241;BME280;11789;53.482;9.862;2024-03-25T11:40:10;100606.97;;;8.25;81.21
23241;BME280;11789;53.482;9.862;2024-03-25T11:42:38;100614.72;;;8.31;81.26
23241;BME280;11789;53.482;9.862;2024-03-25T11:45:14;100613.03;;;8.31;82.58
23241;BME280;11789;53.482;9.862;2024-03-25T11:47:47;100609.59;;;8.28;80.58
23241;BME280;11789;53.482;9.862;2024-03-25T11:50:17;100614.81;;;8.45;82.71
23241;BME280;11789;53.482;9.862;2024-03-25T11:52:44;100610.56;;;8.54;82.61
23241;BME280;11789;53.482;9.862;2024-03-25T11:55:10;100620.84;;;8.45;81.95
23241;BME280;11789;53.482;9.862;2024-03-25T11:57:37;100616.41;;;8.17;81.50
23241;BME280;11789;53.482;9.862;2024-03-25T12:00:04;100618.91;;;8.01;80.92
23241;BME280;11789;53.482;9.862;2024-03-25T12:02:36;100613.63;;;7.83;84.00
23241;BME280;11789;53.482;9.862;2024-03-25T12:05:03;100615.25;;;7.69;81.50
23241;BME280;11789;53.482;9.862;2024-03-25T12:07:31;100615.25;;;7.69;83.75
23241;BME280;11789;53.482;9.862;2024-03-25T12:09:57;100615.38;;;7.90;83.92
23241;BME280;11789;53.482;9.862;2024-03-25T12:12:41;100617.25;;;8.20;84.74
23241;BME280;11789;53.482;9.862;2024-03-25T12:15:09;100618.97;;;8.17;84.31
23241;BME280;11789;53.482;9.862;2024-03-25T12:17:35;100630.09;;;8.16;85.94
23241;BME280;11789;53.482;9.862;2024-03-25T12:20:06;100629.19;;;8.01;86.87
23241;BME280;11789;53.482;9.862;2024-03-25T12:22:35;100623.81;;;7.66;91.21
23241;BME280;11789;53.482;9.862;2024-03-25T12:25:04;100656.78;;;7.13;99.22
23241;BME280;11789;53.482;9.862;2024-03-25T12:27:32;100655.59;;;6.82;100.00
23241;BME280;11789;53.482;9.862;2024-03-25T12:29:59;100647.59;;;6.59;100.00
23241;BME280;11789;53.482;9.862;2024-03-25T12:32:38;100644.09;;;6.52;100.00
23241;BME280;11789;53.482;9.862;2024-03-25T12:37:33;100628.69;;;6.49;100.00
23241;BME280;11789;53.482;9.862;2024-03-25T12:39:59;100624.44;;;6.53;100.00
23241;BME280;11789;53.482;9.862;2024-03-25T12:42:26;100624.53;;;6.63;100.00
23241;BME280;11789;53.482;9.862;2024-03-25T12:44:55;100619.50;;;6.71;100.00
23241;BME280;11789;53.482;9.862;2024-03-25T12:47:21;100615.34;;;6.82;100.00
23241;BME280;11789;53.482;9.862;2024-03-25T12:49:48;100620.59;;;6.94;100.00
23241;BME280;11789;53.482;9.862;2024-03-25T12:52:14;100610.41;;;7.03;100.00
23241;BME280;11789;53.482;9.862;2024-03-25T12:54:39;100612.28;;;7.20;100.00